createdAt,value
2023-01-21T00:01:20.720Z,100433.70
2023-01-21T00:03:49.102Z,100435.55
2023-01-21T00:06:17.624Z,100433.52
2023-01-21T00:08:45.984Z,100431.30
2023-01-21T00:11:15.865Z,100434.94
2023-01-21T00:13:44.896Z,100438.05
2023-01-21T00:16:14.068Z,100445.48
2023-01-21T00:18:42.647Z,100449.66
2023-01-21T00:21:11.366Z,100457.71
2023-01-21T00:23:40.288Z,100461.31
2023-01-21T00:26:12.077Z,100462.52
2023-01-21T00:28:44.319Z,100465.73
2023-01-21T00:31:12.824Z,100471.33
2023-01-21T00:33:41.280Z,100470.62
2023-01-21T00:36:18.426Z,100462.70
2023-01-21T00:38:49.212Z,100456.35
2023-01-21T00:41:17.610Z,100455.36
2023-01-21T00:43:46.022Z,100459.48
2023-01-21T00:46:14.420Z,100454.03
2023-01-21T00:48:42.841Z,100454.07
2023-01-21T00:51:12.075Z,100457.54
2023-01-21T00:53:44.763Z,100462.87
2023-01-21T00:56:14.221Z,100460.64
2023-01-21T00:58:45.529Z,100465.15
2023-01-21T01:01:20.333Z,100467.23
2023-01-21T01:03:50.351Z,100468.64
2023-01-21T01:06:22.533Z,100466.59
2023-01-21T01:08:50.991Z,100467.84
2023-01-21T01:11:21.619Z,100466.16
2023-01-21T01:13:50.033Z,100471.82
2023-01-21T01:16:19.134Z,100471.98
2023-01-21T01:18:48.400Z,100473.14
2023-01-21T01:21:20.267Z,100475.39
2023-01-21T01:23:52.214Z,100474.41
2023-01-21T01:26:22.355Z,100470.48
2023-01-21T01:28:50.708Z,100473.05
2023-01-21T01:31:20.803Z,100476.84
2023-01-21T01:33:49.498Z,100480.77
2023-01-21T01:36:24.749Z,100478.38
2023-01-21T01:38:54.120Z,100481.64
2023-01-21T01:41:29.943Z,100478.04
2023-01-21T01:44:06.023Z,100475.12
2023-01-21T01:46:36.537Z,100479.23
2023-01-21T01:49:21.029Z,100479.92
2023-01-21T01:52:05.098Z,100473.58
2023-01-21T01:54:39.257Z,100475.70
2023-01-21T01:57:12.809Z,100476.37
2023-01-21T01:59:43.865Z,100475.14
2023-01-21T02:02:17.909Z,100465.85
2023-01-21T02:04:53.025Z,100462.58
2023-01-21T02:07:24.904Z,100462.92
2023-01-21T02:09:53.783Z,100458.45
2023-01-21T02:12:22.760Z,100457.60
2023-01-21T02:14:51.417Z,100450.58
2023-01-21T02:17:35.945Z,100457.64
2023-01-21T02:20:41.218Z,100448.38
2023-01-21T02:23:24.455Z,100443.93
2023-01-21T02:26:42.382Z,100441.73
2023-01-21T02:29:31.326Z,100442.59
2023-01-21T02:32:13.931Z,100448.63
2023-01-21T02:35:03.775Z,100452.59
2023-01-21T02:37:43.932Z,100455.70
2023-01-21T02:40:35.966Z,100453.30
2023-01-21T02:43:15.406Z,100449.82
2023-01-21T02:46:03.154Z,100448.27
2023-01-21T02:48:47.935Z,100450.49
2023-01-21T02:51:20.356Z,100448.79
2023-01-21T02:53:48.861Z,100454.45
2023-01-21T02:56:27.816Z,100453.27
2023-01-21T02:59:04.894Z,100451.70
2023-01-21T03:02:29.746Z,100454.58
2023-01-21T03:05:28.183Z,100451.33
2023-01-21T03:08:11.779Z,100449.80
2023-01-21T03:11:06.009Z,100445.19
2023-01-21T03:14:09.119Z,100451.87
2023-01-21T03:16:57.327Z,100444.83
2023-01-21T03:19:45.787Z,100443.43
2023-01-21T03:22:22.038Z,100444.66
2023-01-21T03:24:53.933Z,100446.39
2023-01-21T03:27:27.056Z,100442.61
2023-01-21T03:30:08.393Z,100445.00
2023-01-21T03:32:38.396Z,100446.52
2023-01-21T03:35:08.759Z,100439.33
2023-01-21T03:37:43.548Z,100442.06
2023-01-21T03:40:26.348Z,100442.71
2023-01-21T03:42:56.550Z,100434.98
2023-01-21T03:45:49.289Z,100437.34
2023-01-21T03:48:31.393Z,100437.15
2023-01-21T03:51:08.469Z,100434.59
2023-01-21T03:53:37.091Z,100435.79
2023-01-21T03:56:05.755Z,100429.79
2023-01-21T03:58:34.215Z,100427.60
2023-01-21T04:01:02.733Z,100431.05
2023-01-21T04:03:31.057Z,100429.48
2023-01-21T04:05:59.358Z,100427.42
2023-01-21T04:08:27.684Z,100423.64
2023-01-21T04:10:56.017Z,100426.54
2023-01-21T04:13:24.528Z,100422.23
2023-01-21T04:15:52.906Z,100419.81
2023-01-21T04:18:21.344Z,100413.80
2023-01-21T04:20:49.905Z,100412.09
2023-01-21T04:23:18.318Z,100412.09
2023-01-21T04:25:51.563Z,100412.80
2023-01-21T04:28:20.119Z,100410.44
2023-01-21T04:30:49.305Z,100411.64
2023-01-21T04:33:18.123Z,100409.56
2023-01-21T04:35:46.479Z,100410.41
2023-01-21T04:38:15.856Z,100408.52
2023-01-21T04:40:44.630Z,100404.37
2023-01-21T04:43:13.167Z,100407.27
2023-01-21T04:45:41.609Z,100402.98
2023-01-21T04:48:10.020Z,100406.23
2023-01-21T04:50:38.360Z,100407.08
2023-01-21T04:53:06.888Z,100402.42
2023-01-21T04:55:35.536Z,100404.80
2023-01-21T04:58:04.140Z,100407.18
2023-01-21T05:00:32.543Z,100408.20
2023-01-21T05:03:00.972Z,100401.65
2023-01-21T05:05:29.361Z,100398.35
2023-01-21T05:07:57.688Z,100401.42
2023-01-21T05:10:26.072Z,100399.73
2023-01-21T05:12:54.573Z,100398.68
2023-01-21T05:15:23.540Z,100406.59
2023-01-21T05:17:51.887Z,100402.44
2023-01-21T05:20:20.289Z,100395.19
2023-01-21T05:22:48.965Z,100393.10
2023-01-21T05:25:17.362Z,100394.13
2023-01-21T05:27:54.950Z,100392.73
2023-01-21T05:30:23.529Z,100390.66
2023-01-21T05:32:54.006Z,100388.40
2023-01-21T05:35:24.157Z,100387.68
2023-01-21T05:37:52.483Z,100383.00
2023-01-21T05:40:21.028Z,100378.17
2023-01-21T05:42:49.433Z,100376.45
2023-01-21T05:45:18.035Z,100377.77
2023-01-21T05:47:46.403Z,100381.02
2023-01-21T05:50:15.017Z,100378.52
2023-01-21T05:52:43.521Z,100373.64
2023-01-21T05:55:11.934Z,100371.86
2023-01-21T05:57:40.267Z,100371.13
2023-01-21T06:00:09.741Z,100369.21
2023-01-21T06:02:38.023Z,100365.90
2023-01-21T06:05:07.221Z,100359.83
2023-01-21T06:07:35.549Z,100358.59
2023-01-21T06:10:04.383Z,100354.78
2023-01-21T06:12:32.835Z,100350.27
2023-01-21T06:15:01.176Z,100353.84
2023-01-21T06:17:29.601Z,100356.21
2023-01-21T06:19:57.909Z,100354.81
2023-01-21T06:22:26.295Z,100355.48
2023-01-21T06:24:54.583Z,100351.72
2023-01-21T06:27:22.874Z,100350.14
2023-01-21T06:29:51.177Z,100345.14
2023-01-21T06:32:19.607Z,100335.84
2023-01-21T06:34:47.963Z,100336.33
2023-01-21T06:37:16.295Z,100334.40
2023-01-21T06:39:44.579Z,100334.36
2023-01-21T06:42:12.872Z,100332.96
2023-01-21T06:44:41.183Z,100339.07
2023-01-21T06:47:09.655Z,100337.02
2023-01-21T06:49:38.200Z,100338.34
2023-01-21T06:52:07.164Z,100335.89
2023-01-21T06:54:35.500Z,100335.83
2023-01-21T06:57:03.891Z,100332.81
2023-01-21T06:59:32.193Z,100339.45
2023-01-21T07:02:00.613Z,100344.02
2023-01-21T07:04:29.158Z,100347.55
2023-01-21T07:06:57.423Z,100344.40
2023-01-21T07:09:25.793Z,100345.70
2023-01-21T07:11:55.509Z,100344.80
2023-01-21T07:14:23.980Z,100342.68
2023-01-21T07:16:53.591Z,100343.29
2023-01-21T07:19:21.922Z,100351.09
2023-01-21T07:21:50.744Z,100356.48
2023-01-21T07:24:19.248Z,100348.14
2023-01-21T07:26:48.281Z,100354.59
2023-01-21T07:29:16.706Z,100352.08
2023-01-21T07:31:45.126Z,100351.51
2023-01-21T07:34:13.634Z,100346.09
2023-01-21T07:36:42.217Z,100343.06
2023-01-21T07:39:10.623Z,100344.67
2023-01-21T07:41:39.068Z,100342.34
2023-01-21T07:44:08.853Z,100344.29
2023-01-21T07:46:37.244Z,100343.14
2023-01-21T07:49:05.599Z,100347.19
2023-01-21T07:51:34.003Z,100343.15
2023-01-21T07:54:02.592Z,100345.44
2023-01-21T07:56:31.039Z,100342.30
2023-01-21T07:58:59.483Z,100341.21
2023-01-21T08:01:31.076Z,100338.20
2023-01-21T08:03:59.911Z,100340.52
2023-01-21T08:06:28.274Z,100342.38
2023-01-21T08:08:56.588Z,100331.89
2023-01-21T08:11:25.155Z,100334.80
2023-01-21T08:13:53.529Z,100333.08
2023-01-21T08:16:22.142Z,100335.11
2023-01-21T08:18:50.560Z,100338.34
2023-01-21T08:21:20.961Z,100356.88
2023-01-21T08:23:49.404Z,100385.16
2023-01-21T08:26:18.220Z,100402.25
2023-01-21T08:28:46.587Z,100399.00
2023-01-21T08:31:15.389Z,100402.73
2023-01-21T08:33:43.944Z,100401.27
2023-01-21T08:36:12.491Z,100407.60
2023-01-21T08:38:41.091Z,100407.44
2023-01-21T08:41:10.846Z,100406.26
2023-01-21T08:43:40.668Z,100405.94
2023-01-21T08:46:09.054Z,100405.54
2023-01-21T08:48:40.341Z,100408.98
2023-01-21T08:51:08.729Z,100406.10
2023-01-21T08:53:37.117Z,100405.63
2023-01-21T08:56:06.000Z,100405.58
2023-01-21T08:58:34.581Z,100407.23
2023-01-21T09:01:09.460Z,100407.59
2023-01-21T09:03:38.244Z,100410.59
2023-01-21T09:06:07.641Z,100408.25
2023-01-21T09:08:36.543Z,100403.79
2023-01-21T09:11:07.011Z,100403.33
2023-01-21T09:13:39.186Z,100401.98
2023-01-21T09:16:20.023Z,100400.27
2023-01-21T09:18:49.168Z,100401.35
2023-01-21T09:21:17.656Z,100394.45
2023-01-21T09:23:45.969Z,100392.80
2023-01-21T09:26:20.314Z,100390.39
2023-01-21T09:29:02.000Z,100386.35
2023-01-21T09:31:31.619Z,100384.20
2023-01-21T09:34:03.981Z,100381.32
2023-01-21T09:36:35.191Z,100376.66
2023-01-21T09:39:03.847Z,100377.58
2023-01-21T09:41:53.460Z,100369.85
2023-01-21T09:44:44.909Z,100367.50
2023-01-21T09:47:33.752Z,100366.03
2023-01-21T09:50:19.004Z,100368.56
2023-01-21T09:52:55.298Z,100365.34
2023-01-21T09:55:31.627Z,100364.78
2023-01-21T09:58:28.268Z,100361.08
2023-01-21T10:01:15.603Z,100357.54
2023-01-21T10:03:55.639Z,100351.88
2023-01-21T10:06:44.105Z,100348.50
2023-01-21T10:09:21.297Z,100346.55
2023-01-21T10:12:18.516Z,100343.39
2023-01-21T10:15:19.748Z,100342.54
2023-01-21T10:18:15.020Z,100343.80
2023-01-21T10:20:56.943Z,100336.72
2023-01-21T10:23:39.055Z,100339.40
2023-01-21T10:26:11.900Z,100334.49
2023-01-21T10:28:50.394Z,100334.62
2023-01-21T10:31:28.621Z,100338.68
2023-01-21T10:33:57.289Z,100331.16
2023-01-21T10:36:35.695Z,100326.44
2023-01-21T10:39:10.009Z,100328.89
2023-01-21T10:41:44.221Z,100324.95
2023-01-21T10:44:53.292Z,100326.33
2023-01-21T10:47:38.980Z,100322.95
2023-01-21T10:50:48.286Z,100323.61
2023-01-21T10:53:41.872Z,100325.36
2023-01-21T10:57:06.552Z,100321.27
2023-01-21T10:59:37.823Z,100320.29
2023-01-21T11:02:09.127Z,100324.27
2023-01-21T11:04:40.859Z,100324.59
2023-01-21T11:07:14.883Z,100322.66
2023-01-21T11:09:47.041Z,100322.98
2023-01-21T11:12:21.791Z,100322.11
2023-01-21T11:15:16.742Z,100321.16
2023-01-21T11:17:49.201Z,100319.89
2023-01-21T11:20:34.835Z,100317.21
2023-01-21T11:23:24.367Z,100311.41
2023-01-21T11:26:04.921Z,100315.52
2023-01-21T11:28:34.506Z,100312.61
2023-01-21T11:31:26.963Z,100315.36
2023-01-21T11:33:55.798Z,100314.58
2023-01-21T11:36:24.096Z,100313.06
2023-01-21T11:39:05.528Z,100312.74
2023-01-21T11:41:34.020Z,100308.76
2023-01-21T11:44:23.717Z,100310.41
2023-01-21T11:46:52.870Z,100309.30
2023-01-21T11:49:28.805Z,100313.08
2023-01-21T11:52:16.756Z,100311.67
2023-01-21T11:54:46.165Z,100312.62
2023-01-21T11:57:26.932Z,100309.31
2023-01-21T12:00:04.206Z,100305.74
2023-01-21T12:02:40.779Z,100305.00
2023-01-21T12:05:34.369Z,100304.97
2023-01-21T12:08:05.843Z,100300.95
2023-01-21T12:10:46.919Z,100298.55
2023-01-21T12:13:20.272Z,100295.78
2023-01-21T12:16:40.509Z,100298.60
2023-01-21T12:19:49.914Z,100299.23
2023-01-21T12:22:59.845Z,100296.54
2023-01-21T12:25:41.553Z,100296.14
2023-01-21T12:28:34.011Z,100288.06
2023-01-21T12:31:14.039Z,100289.81
2023-01-21T12:33:53.383Z,100288.22
2023-01-21T12:37:02.979Z,100285.47
2023-01-21T12:39:36.503Z,100280.56
2023-01-21T12:42:37.661Z,100279.09
2023-01-21T12:45:23.159Z,100278.64
2023-01-21T12:48:05.580Z,100285.08
2023-01-21T12:50:47.956Z,100279.23
2023-01-21T12:53:32.879Z,100280.65
2023-01-21T12:56:34.981Z,100281.19
2023-01-21T12:59:17.057Z,100281.58
2023-01-21T13:02:05.779Z,100284.84
2023-01-21T13:04:58.209Z,100279.27
2023-01-21T13:07:58.112Z,100281.88
2023-01-21T13:10:35.384Z,100282.38
2023-01-21T13:13:10.815Z,100287.33
2023-01-21T13:15:41.383Z,100286.11
2023-01-21T13:18:28.736Z,100280.69
2023-01-21T13:21:08.468Z,100283.02
2023-01-21T13:23:58.442Z,100286.86
2023-01-21T13:26:50.607Z,100288.33
2023-01-21T13:29:44.923Z,100288.56
2023-01-21T13:33:04.721Z,100284.27
2023-01-21T13:36:37.160Z,100290.63
2023-01-21T13:39:45.595Z,100292.77
2023-01-21T13:42:56.177Z,100295.55
2023-01-21T13:45:53.162Z,100298.77
2023-01-21T13:48:45.325Z,100305.42
2023-01-21T13:51:49.123Z,100313.18
2023-01-21T13:54:40.806Z,100316.30
2023-01-21T13:57:26.967Z,100320.02
2023-01-21T14:00:01.634Z,100323.14
2023-01-21T14:02:59.259Z,100325.33
2023-01-21T14:05:52.060Z,100323.92
2023-01-21T14:08:36.655Z,100325.09
2023-01-21T14:11:39.233Z,100325.11
2023-01-21T14:14:46.084Z,100328.80
2023-01-21T14:17:42.128Z,100333.33
2023-01-21T14:20:50.605Z,100332.86
2023-01-21T14:23:45.052Z,100334.15
2023-01-21T14:26:39.400Z,100336.45
2023-01-21T14:29:26.108Z,100343.37
2023-01-21T14:32:08.198Z,100347.35
2023-01-21T14:35:13.921Z,100347.20
2023-01-21T14:38:05.451Z,100349.22
2023-01-21T14:40:44.443Z,100353.85
2023-01-21T14:43:40.522Z,100358.68
2023-01-21T14:46:34.164Z,100359.21
2023-01-21T14:49:08.258Z,100358.92
2023-01-21T14:52:03.495Z,100362.71
2023-01-21T14:54:31.801Z,100367.56
2023-01-21T14:57:17.385Z,100373.20
2023-01-21T14:59:47.456Z,100377.17
2023-01-21T15:02:35.005Z,100384.48
2023-01-21T15:05:15.842Z,100389.84
2023-01-21T15:07:48.680Z,100392.41
2023-01-21T15:10:30.028Z,100394.32
2023-01-21T15:13:03.037Z,100398.42
2023-01-21T15:15:36.856Z,100399.77
2023-01-21T15:18:34.487Z,100398.86
2023-01-21T15:21:41.384Z,100403.41
2023-01-21T15:24:23.077Z,100403.63
2023-01-21T15:27:23.078Z,100403.99
2023-01-21T15:29:54.377Z,100407.83
2023-01-21T15:32:31.862Z,100413.41
2023-01-21T15:35:31.363Z,100413.90
2023-01-21T15:38:08.101Z,100416.61
2023-01-21T15:40:45.041Z,100417.09
2023-01-21T15:43:41.313Z,100420.17
2023-01-21T15:46:56.937Z,100421.79
2023-01-21T15:50:01.391Z,100426.96
2023-01-21T15:52:57.804Z,100423.70
2023-01-21T15:56:16.668Z,100428.73
2023-01-21T15:59:20.001Z,100432.55
2023-01-21T16:02:13.564Z,100434.98
2023-01-21T16:04:56.577Z,100437.23
2023-01-21T16:07:30.857Z,100440.64
2023-01-21T16:10:08.738Z,100442.73
2023-01-21T16:13:03.064Z,100443.86
2023-01-21T16:16:13.058Z,100451.62
2023-01-21T16:18:56.127Z,100459.77
2023-01-21T16:21:32.924Z,100462.89
2023-01-21T16:24:14.060Z,100467.27
2023-01-21T16:26:43.336Z,100466.75
2023-01-21T16:29:14.026Z,100466.91
2023-01-21T16:31:49.255Z,100472.06
2023-01-21T16:34:36.309Z,100475.66
2023-01-21T16:37:13.060Z,100476.98
2023-01-21T16:39:43.491Z,100479.73
2023-01-21T16:42:25.215Z,100482.16
2023-01-21T16:44:53.919Z,100482.20
2023-01-21T16:47:32.717Z,100487.43
2023-01-21T16:50:01.339Z,100487.81
2023-01-21T16:52:30.578Z,100491.29
2023-01-21T16:54:58.872Z,100498.21
2023-01-21T16:57:32.167Z,100506.15
2023-01-21T17:00:02.487Z,100509.06
2023-01-21T17:02:34.009Z,100507.34
2023-01-21T17:05:08.168Z,100507.33
2023-01-21T17:07:49.874Z,100506.13
2023-01-21T17:10:24.402Z,100507.64
2023-01-21T17:12:58.653Z,100515.52
2023-01-21T17:15:38.648Z,100517.25
2023-01-21T17:18:20.105Z,100522.08
2023-01-21T17:21:00.688Z,100524.64
2023-01-21T17:23:39.041Z,100530.30
2023-01-21T17:26:17.100Z,100530.84
2023-01-21T17:29:18.839Z,100538.04
2023-01-21T17:32:00.001Z,100543.52
2023-01-21T17:34:34.825Z,100547.45
2023-01-21T17:41:27.270Z,100557.83
2023-01-21T17:43:56.696Z,100566.45
2023-01-21T17:46:25.297Z,100568.48
2023-01-21T17:49:07.220Z,100572.61
2023-01-21T17:51:35.902Z,100575.86
2023-01-21T17:54:08.965Z,100579.27
2023-01-21T17:56:48.446Z,100585.44
2023-01-21T17:59:41.639Z,100583.89
2023-01-21T18:02:17.661Z,100583.75
2023-01-21T18:04:46.657Z,100587.59
2023-01-21T18:07:29.852Z,100588.02
2023-01-21T18:10:02.773Z,100592.56
2023-01-21T18:12:31.472Z,100598.44
2023-01-21T18:15:00.026Z,100598.30
2023-01-21T18:17:28.417Z,100601.55
2023-01-21T18:19:57.985Z,100603.92
2023-01-21T18:22:30.576Z,100608.38
2023-01-21T18:25:00.480Z,100614.77
2023-01-21T18:27:29.060Z,100616.33
2023-01-21T18:29:58.950Z,100614.78
2023-01-21T18:32:27.409Z,100616.85
2023-01-21T18:34:56.014Z,100617.50
2023-01-21T18:37:25.230Z,100616.48
2023-01-21T18:39:53.577Z,100621.15
2023-01-21T18:42:22.148Z,100623.95
2023-01-21T18:44:50.512Z,100628.12
2023-01-21T18:47:19.769Z,100630.85
2023-01-21T18:49:52.427Z,100633.64
2023-01-21T18:52:21.234Z,100635.14
2023-01-21T18:54:49.757Z,100638.39
2023-01-21T18:57:22.397Z,100640.06
2023-01-21T18:59:50.861Z,100642.59
2023-01-21T19:02:21.106Z,100642.41
2023-01-21T19:04:49.724Z,100643.97
2023-01-21T19:07:22.113Z,100645.61
2023-01-21T19:09:51.297Z,100650.77
2023-01-21T19:12:21.320Z,100656.61
2023-01-21T19:14:49.945Z,100657.91
2023-01-21T19:17:28.733Z,100657.88
2023-01-21T19:19:57.584Z,100664.77
2023-01-21T19:22:28.475Z,100667.48
2023-01-21T19:24:56.892Z,100674.12
2023-01-21T19:27:37.427Z,100675.92
2023-01-21T19:30:31.413Z,100680.42
2023-01-21T19:33:02.962Z,100683.51
2023-01-21T19:35:44.485Z,100689.02
2023-01-21T19:38:20.941Z,100688.25
2023-01-21T19:40:50.662Z,100693.22
2023-01-21T19:43:21.709Z,100701.61
2023-01-21T19:45:51.843Z,100702.45
2023-01-21T19:48:22.159Z,100704.80
2023-01-21T19:50:50.691Z,100708.88
2023-01-21T19:53:21.259Z,100710.39
2023-01-21T19:55:50.937Z,100716.70
2023-01-21T19:58:27.623Z,100719.24
2023-01-21T20:00:56.265Z,100727.25
2023-01-21T20:03:27.847Z,100732.39
2023-01-21T20:06:03.764Z,100737.01
2023-01-21T20:08:32.999Z,100741.79
2023-01-21T20:11:01.351Z,100743.64
2023-01-21T20:13:32.297Z,100744.65
2023-01-21T20:16:14.490Z,100744.64
2023-01-21T20:18:43.698Z,100745.61
2023-01-21T20:21:12.296Z,100746.29
2023-01-21T20:23:40.933Z,100749.92
2023-01-21T20:26:20.305Z,100755.23
2023-01-21T20:28:51.445Z,100758.13
2023-01-21T20:31:20.859Z,100760.17
2023-01-21T20:33:49.521Z,100761.89
2023-01-21T20:36:24.650Z,100763.10
2023-01-21T20:38:55.042Z,100761.52
2023-01-21T20:41:23.421Z,100769.42
2023-01-21T20:43:51.937Z,100767.19
2023-01-21T20:46:27.315Z,100770.30
2023-01-21T20:48:56.587Z,100769.95
2023-01-21T20:51:25.532Z,100776.55
2023-01-21T20:53:54.342Z,100776.39
2023-01-21T20:56:33.042Z,100776.38
2023-01-21T20:59:01.634Z,100779.14
2023-01-21T21:01:31.262Z,100781.57
2023-01-21T21:03:59.734Z,100784.45
2023-01-21T21:06:29.023Z,100788.21
2023-01-21T21:08:57.570Z,100790.61
2023-01-21T21:11:26.102Z,100794.95
2023-01-21T21:13:54.603Z,100796.85
2023-01-21T21:16:31.595Z,100798.38
2023-01-21T21:19:00.864Z,100802.00
2023-01-21T21:21:29.480Z,100803.55
2023-01-21T21:23:57.901Z,100807.14
2023-01-21T21:26:29.628Z,100806.94
2023-01-21T21:28:58.086Z,100808.66
2023-01-21T21:31:32.724Z,100810.56
2023-01-21T21:34:01.341Z,100812.61
2023-01-21T21:36:30.031Z,100820.55
2023-01-21T21:39:00.114Z,100822.09
2023-01-21T21:41:47.438Z,100827.64
2023-01-21T21:44:15.876Z,100828.86
2023-01-21T21:47:03.262Z,100829.40
2023-01-21T21:49:32.463Z,100829.39
2023-01-21T21:52:01.051Z,100831.79
2023-01-21T21:54:29.561Z,100832.46
2023-01-21T21:56:58.224Z,100834.02
2023-01-21T21:59:26.799Z,100832.98
2023-01-21T22:01:55.241Z,100837.00
2023-01-21T22:04:24.238Z,100841.80
2023-01-21T22:06:52.831Z,100841.65
2023-01-21T22:09:21.469Z,100843.91
2023-01-21T22:11:49.856Z,100848.52
2023-01-21T22:14:18.371Z,100857.30
2023-01-21T22:16:49.743Z,100865.40
2023-01-21T22:19:18.267Z,100865.08
2023-01-21T22:21:47.045Z,100866.93
2023-01-21T22:24:15.855Z,100871.73
2023-01-21T22:26:44.889Z,100880.20
2023-01-21T22:29:13.355Z,100888.32
2023-01-21T22:31:42.313Z,100889.37
2023-01-21T22:34:11.791Z,100888.85
2023-01-21T22:36:42.125Z,100883.70
2023-01-21T22:39:11.889Z,100882.33
2023-01-21T22:41:40.300Z,100884.38
2023-01-21T22:44:08.680Z,100887.44
2023-01-21T22:46:37.055Z,100891.55
2023-01-21T22:49:05.543Z,100897.77
2023-01-21T22:51:36.189Z,100905.34
2023-01-21T22:54:07.679Z,100907.89
2023-01-21T22:56:50.939Z,100910.13
2023-01-21T22:59:21.073Z,100908.59
2023-01-21T23:01:51.339Z,100903.45
2023-01-21T23:04:19.977Z,100909.98
2023-01-21T23:06:50.082Z,100914.45
2023-01-21T23:09:18.549Z,100919.97
2023-01-21T23:11:47.153Z,100924.96
2023-01-21T23:14:16.706Z,100927.55
2023-01-21T23:16:46.276Z,100926.02
2023-01-21T23:19:15.276Z,100925.33
2023-01-21T23:21:43.964Z,100925.36
2023-01-21T23:24:12.549Z,100923.98
2023-01-21T23:26:41.715Z,100925.02
2023-01-21T23:29:10.286Z,100922.45
2023-01-21T23:31:38.756Z,100922.64
2023-01-21T23:34:07.501Z,100920.73
2023-01-21T23:36:35.916Z,100924.34
2023-01-21T23:39:04.600Z,100923.38
2023-01-21T23:41:32.974Z,100927.02
2023-01-21T23:44:01.956Z,100929.23
2023-01-21T23:46:30.720Z,100930.10
2023-01-21T23:48:59.504Z,100933.04
2023-01-21T23:51:28.006Z,100934.08
2023-01-21T23:53:56.576Z,100948.37
2023-01-21T23:56:26.356Z,100953.73
2023-01-21T23:58:55.117Z,100951.04
